Time;durP1;ratioP1;P1;durP2;ratioP2;P2;SDS_P1;SDS_P2;PMS_P1;PMS_P2;Temp;Humidity;BMP_temperature;BMP_pressure;BME280_temperature;BME280_humidity;BME280_pressure;Samples;Min_cycle;Max_cycle;Signal;HPM_P1;HPM_P2
2021/06/15 00:00:28;;;;;;;31.20;28.43;;;;;;;;;;6279474;22;20388;-88
2021/06/15 00:02:55;;;;;;;34.37;31.37;;;;;;;;;;6279442;22;20428;-89
2021/06/15 00:05:23;;;;;;;34.17;31.20;;;;;;;;;;6252692;22;20478;-88
2021/06/15 00:07:50;;;;;;;32.27;30.00;;;;;;;;;;6278603;22;20873;-88
2021/06/15 00:10:19;;;;;;;35.10;32.03;;;;;;;;;;6279182;22;20518;-88
2021/06/15 00:12:48;;;;;;;32.03;29.73;;;;;;;;;;6279369;22;20382;-88
2021/06/15 00:15:16;;;;;;;34.27;31.67;;;;;;;;;;6279527;22;20381;-89
2021/06/15 00:17:44;;;;;;;35.37;32.23;;;;;;;;;;6278982;22;20406;-88
2021/06/15 00:20:12;;;;;;;34.30;31.30;;;;;;;;;;6278815;22;20374;-88
2021/06/15 00:22:39;;;;;;;35.37;32.10;;;;;;;;;;6278985;22;20413;-88
2021/06/15 00:25:07;;;;;;;35.90;32.90;;;;;;;;;;6279122;22;20379;-88
2021/06/15 00:27:34;;;;;;;35.20;32.53;;;;;;;;;;6279154;22;20418;-88
2021/06/15 00:30:03;;;;;;;34.20;31.60;;;;;;;;;;6278518;22;20426;-88
2021/06/15 00:32:31;;;;;;;34.83;32.10;;;;;;;;;;6278873;22;20375;-88
2021/06/15 00:34:58;;;;;;;33.07;30.67;;;;;;;;;;6279596;22;20421;-88
2021/06/15 00:37:26;;;;;;;32.87;30.27;;;;;;;;;;6279008;22;20400;-88
2021/06/15 00:39:54;;;;;;;33.27;30.40;;;;;;;;;;6279068;22;20385;-88
2021/06/15 00:42:22;;;;;;;33.33;30.63;;;;;;;;;;6278610;22;20365;-89
2021/06/15 00:44:52;;;;;;;33.67;31.07;;;;;;;;;;6278998;22;20402;-89
2021/06/15 00:47:21;;;;;;;34.63;31.87;;;;;;;;;;6278930;22;20396;-88
2021/06/15 00:49:49;;;;;;;34.10;31.30;;;;;;;;;;6279358;22;20426;-88
2021/06/15 00:52:16;;;;;;;33.30;30.60;;;;;;;;;;6278591;22;20448;-88
2021/06/15 00:54:44;;;;;;;33.13;30.33;;;;;;;;;;6278241;22;20408;-88
2021/06/15 00:57:16;;;;;;;33.83;31.23;;;;;;;;;;6278526;22;20458;-88
2021/06/15 00:59:43;;;;;;;33.20;30.50;;;;;;;;;;6278443;22;20495;-88
2021/06/15 01:02:11;;;;;;;36.00;33.00;;;;;;;;;;6278371;22;20414;-88
2021/06/15 01:04:40;;;;;;;32.77;30.20;;;;;;;;;;6278740;22;20411;-88
2021/06/15 01:07:11;;;;;;;32.87;29.97;;;;;;;;;;6278396;22;20400;-89
2021/06/15 01:09:41;;;;;;;33.27;30.47;;;;;;;;;;6278337;22;20431;-88
2021/06/15 01:12:14;;;;;;;31.30;29.00;;;;;;;;;;6278729;22;20900;-89
2021/06/15 01:14:48;;;;;;;33.17;30.57;;;;;;;;;;6278928;22;20393;-88
2021/06/15 01:17:19;;;;;;;34.03;31.27;;;;;;;;;;6278544;22;20370;-88
2021/06/15 01:19:56;;;;;;;36.23;33.23;;;;;;;;;;6278366;22;20370;-88
2021/06/15 01:22:37;;;;;;;33.97;31.27;;;;;;;;;;6278286;22;20949;-88
2021/06/15 01:25:06;;;;;;;35.00;31.80;;;;;;;;;;6278659;22;20379;-88
2021/06/15 01:27:43;;;;;;;32.83;30.10;;;;;;;;;;6278217;22;20425;-88
2021/06/15 01:30:12;;;;;;;34.83;32.00;;;;;;;;;;6278628;22;21038;-88
2021/06/15 01:32:41;;;;;;;33.67;31.07;;;;;;;;;;6278759;22;20421;-88
2021/06/15 01:35:10;;;;;;;35.10;32.40;;;;;;;;;;6251804;22;20371;-89
2021/06/15 01:37:39;;;;;;;39.07;35.53;;;;;;;;;;6278573;22;20370;-88
2021/06/15 01:40:13;;;;;;;42.13;38.40;;;;;;;;;;6278145;22;20374;-88
2021/06/15 01:42:44;;;;;;;36.80;33.80;;;;;;;;;;6278519;22;20397;-88
2021/06/15 01:45:14;;;;;;;37.50;34.60;;;;;;;;;;6278617;22;20391;-88
2021/06/15 01:47:45;;;;;;;42.17;38.20;;;;;;;;;;6278490;22;20377;-89
2021/06/15 01:50:13;;;;;;;40.93;37.33;;;;;;;;;;6278716;22;20413;-88
2021/06/15 01:52:42;;;;;;;41.67;38.23;;;;;;;;;;6251512;22;20403;-88
2021/06/15 01:55:10;;;;;;;43.30;39.47;;;;;;;;;;6277729;22;20377;-88
2021/06/15 01:57:38;;;;;;;43.03;38.83;;;;;;;;;;6278076;22;20367;-88
2021/06/15 02:00:10;;;;;;;42.80;39.00;;;;;;;;;;6251586;22;20408;-88
2021/06/15 02:02:39;;;;;;;41.50;37.77;;;;;;;;;;6277946;22;20396;-88
2021/06/15 02:05:08;;;;;;;42.77;39.23;;;;;;;;;;6277985;22;20369;-88
2021/06/15 02:07:38;;;;;;;43.53;39.73;;;;;;;;;;6276661;22;20847;-87
2021/06/15 02:10:07;;;;;;;47.33;42.60;;;;;;;;;;6277503;22;20425;-89
2021/06/15 02:12:40;;;;;;;45.60;41.40;;;;;;;;;;6278253;22;20399;-89
2021/06/15 02:15:10;;;;;;;44.23;39.97;;;;;;;;;;6277909;22;20427;-88
2021/06/15 02:17:40;;;;;;;43.53;39.80;;;;;;;;;;6278238;22;20362;-89
2021/06/15 02:20:09;;;;;;;43.00;39.20;;;;;;;;;;6277689;22;20366;-88
2021/06/15 02:22:36;;;;;;;43.93;39.83;;;;;;;;;;6278063;22;20424;-88
2021/06/15 02:25:04;;;;;;;44.70;40.70;;;;;;;;;;6277674;22;20874;-88
2021/06/15 02:27:32;;;;;;;42.37;38.57;;;;;;;;;;6277708;22;20710;-88
2021/06/15 02:29:59;;;;;;;47.93;42.70;;;;;;;;;;6278124;22;20377;-89
2021/06/15 02:32:29;;;;;;;43.23;39.43;;;;;;;;;;6278014;22;20406;-88
2021/06/15 02:34:58;;;;;;;45.47;41.50;;;;;;;;;;6278652;22;20386;-89
2021/06/15 02:37:28;;;;;;;42.70;38.83;;;;;;;;;;6251296;22;20685;-88
2021/06/15 02:39:57;;;;;;;48.60;43.80;;;;;;;;;;6277568;22;20374;-88
2021/06/15 02:42:26;;;;;;;43.17;39.40;;;;;;;;;;6251601;22;20453;-89
2021/06/15 02:44:54;;;;;;;48.03;43.30;;;;;;;;;;6277244;22;20897;-89
2021/06/15 02:47:23;;;;;;;47.60;43.30;;;;;;;;;;6278240;22;20389;-89
2021/06/15 02:49:53;;;;;;;45.93;42.13;;;;;;;;;;6277970;22;20377;-88
2021/06/15 02:52:26;;;;;;;44.80;41.20;;;;;;;;;;6278830;22;20385;-89
2021/06/15 02:54:57;;;;;;;46.77;42.40;;;;;;;;;;6226086;22;20376;-88
2021/06/15 02:57:26;;;;;;;48.10;44.00;;;;;;;;;;6250866;22;20414;-88
2021/06/15 02:59:54;;;;;;;45.43;41.53;;;;;;;;;;6277852;22;20774;-89
2021/06/15 03:02:22;;;;;;;47.77;43.60;;;;;;;;;;6277914;22;20410;-88
2021/06/15 03:04:49;;;;;;;45.77;41.77;;;;;;;;;;6277194;22;20920;-88
2021/06/15 03:07:18;;;;;;;42.90;39.13;;;;;;;;;;6278426;22;20397;-88
2021/06/15 03:09:46;;;;;;;44.20;40.20;;;;;;;;;;6277076;22;20401;-88
2021/06/15 03:12:15;;;;;;;42.30;38.50;;;;;;;;;;6278572;22;20424;-89
2021/06/15 03:14:45;;;;;;;43.27;39.60;;;;;;;;;;6277870;22;20372;-88
2021/06/15 03:17:12;;;;;;;42.70;38.90;;;;;;;;;;6277565;22;20405;-88
2021/06/15 03:19:42;;;;;;;42.77;39.27;;;;;;;;;;6277787;22;20398;-88
2021/06/15 03:22:12;;;;;;;43.30;39.50;;;;;;;;;;6250952;22;20455;-88
2021/06/15 03:24:44;;;;;;;41.93;38.07;;;;;;;;;;6277294;22;20365;-89
2021/06/15 03:27:13;;;;;;;46.70;39.50;;;;;;;;;;6277661;22;20443;-88
2021/06/15 03:29:41;;;;;;;40.03;36.73;;;;;;;;;;6277620;22;20398;-88
2021/06/15 03:32:10;;;;;;;41.77;38.20;;;;;;;;;;6278799;22;20748;-88
2021/06/15 03:34:41;;;;;;;42.93;38.93;;;;;;;;;;6278850;22;20413;-88
2021/06/15 03:37:10;;;;;;;41.53;38.23;;;;;;;;;;6280253;22;20369;-88
2021/06/15 03:39:38;;;;;;;41.60;37.73;;;;;;;;;;6279533;22;20360;-88
2021/06/15 03:42:09;;;;;;;40.80;37.40;;;;;;;;;;6279176;22;20441;-88
2021/06/15 03:44:37;;;;;;;41.83;38.20;;;;;;;;;;6279641;22;20410;-87
2021/06/15 03:47:05;;;;;;;38.43;34.80;;;;;;;;;;6280064;22;20419;-86
2021/06/15 03:49:33;;;;;;;40.87;37.23;;;;;;;;;;6279508;22;20899;-86
2021/06/15 03:52:03;;;;;;;38.57;35.43;;;;;;;;;;6279594;22;20745;-86
2021/06/15 03:54:32;;;;;;;38.53;35.23;;;;;;;;;;6279500;22;20745;-87
2021/06/15 03:57:02;;;;;;;39.43;36.07;;;;;;;;;;6279512;22;20369;-86
2021/06/15 03:59:32;;;;;;;39.03;35.60;;;;;;;;;;6279807;22;20393;-86
2021/06/15 04:02:02;;;;;;;38.67;34.80;;;;;;;;;;6279221;22;20439;-86
2021/06/15 04:04:31;;;;;;;37.70;34.53;;;;;;;;;;6279739;22;20365;-86
2021/06/15 04:06:59;;;;;;;36.13;33.17;;;;;;;;;;6279193;22;20409;-86
2021/06/15 04:09:28;;;;;;;38.60;35.23;;;;;;;;;;6252248;22;20864;-86
2021/06/15 04:11:56;;;;;;;31.77;29.07;;;;;;;;;;6278835;22;20414;-86
2021/06/15 04:14:25;;;;;;;34.13;31.17;;;;;;;;;;6252717;22;20416;-86
2021/06/15 04:16:54;;;;;;;30.20;27.60;;;;;;;;;;6279309;22;20417;-86
2021/06/15 04:19:25;;;;;;;31.33;28.67;;;;;;;;;;6278917;22;20401;-86
2021/06/15 04:21:54;;;;;;;30.13;28.00;;;;;;;;;;6278705;22;20446;-86
2021/06/15 04:24:25;;;;;;;30.03;27.53;;;;;;;;;;6279268;22;20409;-86
2021/06/15 04:26:53;;;;;;;28.40;26.47;;;;;;;;;;6278695;22;20473;-87
2021/06/15 04:29:21;;;;;;;30.90;28.20;;;;;;;;;;6278739;22;20402;-86
2021/06/15 04:31:51;;;;;;;30.97;28.67;;;;;;;;;;6252490;22;20426;-86
2021/06/15 04:34:23;;;;;;;27.90;25.87;;;;;;;;;;6279186;22;20394;-86
2021/06/15 04:36:51;;;;;;;26.30;24.30;;;;;;;;;;6278969;22;20410;-86
2021/06/15 04:39:20;;;;;;;27.40;25.40;;;;;;;;;;6278746;22;20382;-87
2021/06/15 04:41:51;;;;;;;29.00;26.80;;;;;;;;;;6278385;22;20369;-86
2021/06/15 04:44:23;;;;;;;28.70;26.47;;;;;;;;;;6279116;22;20365;-86
2021/06/15 04:46:51;;;;;;;28.57;26.77;;;;;;;;;;6278931;22;20862;-86
2021/06/15 04:49:24;;;;;;;29.87;27.73;;;;;;;;;;6278457;22;20398;-86
2021/06/15 04:51:52;;;;;;;31.50;29.20;;;;;;;;;;6252353;22;20481;-87
2021/06/15 04:54:22;;;;;;;30.10;27.93;;;;;;;;;;6278692;22;20391;-86
2021/06/15 04:56:50;;;;;;;31.20;28.80;;;;;;;;;;6278269;22;20394;-86
2021/06/15 04:59:21;;;;;;;31.27;28.77;;;;;;;;;;6278669;22;20407;-86
2021/06/15 05:01:49;;;;;;;31.97;29.43;;;;;;;;;;6278484;22;20852;-87
2021/06/15 05:04:17;;;;;;;29.67;27.67;;;;;;;;;;6279064;22;20374;-86
2021/06/15 05:06:47;;;;;;;32.23;29.83;;;;;;;;;;6252367;22;20389;-85
2021/06/15 05:09:16;;;;;;;32.60;30.10;;;;;;;;;;6278417;22;20449;-86
2021/06/15 05:11:44;;;;;;;32.67;30.13;;;;;;;;;;6278490;22;20421;-86
2021/06/15 05:14:13;;;;;;;31.40;28.90;;;;;;;;;;6278368;22;20375;-86
2021/06/15 05:16:41;;;;;;;30.73;28.40;;;;;;;;;;6278267;22;20367;-86
2021/06/15 05:19:08;;;;;;;32.13;29.73;;;;;;;;;;6278517;22;20406;-85
2021/06/15 05:21:41;;;;;;;33.70;31.10;;;;;;;;;;6278382;22;20406;-86
2021/06/15 05:24:13;;;;;;;31.43;29.03;;;;;;;;;;6252054;22;20446;-86
2021/06/15 05:26:41;;;;;;;31.77;29.37;;;;;;;;;;6278514;22;20406;-86
2021/06/15 05:29:09;;;;;;;30.90;28.47;;;;;;;;;;6278135;22;20391;-87
2021/06/15 05:31:36;;;;;;;29.30;27.20;;;;;;;;;;6278033;22;20932;-86
2021/06/15 05:34:04;;;;;;;30.60;28.40;;;;;;;;;;6278861;22;20718;-86
2021/06/15 05:36:31;;;;;;;30.10;27.47;;;;;;;;;;6279588;22;20390;-88
2021/06/15 05:38:58;;;;;;;30.13;27.77;;;;;;;;;;6276390;22;20885;-88
2021/06/15 05:41:27;;;;;;;28.77;26.63;;;;;;;;;;6278315;22;20438;-87
2021/06/15 05:43:55;;;;;;;27.90;25.80;;;;;;;;;;6278177;22;20370;-88
2021/06/15 05:46:22;;;;;;;28.60;26.37;;;;;;;;;;6250974;22;20403;-85
2021/06/15 05:48:50;;;;;;;29.10;26.73;;;;;;;;;;6278238;22;20391;-86
2021/06/15 05:51:17;;;;;;;28.60;26.40;;;;;;;;;;6278433;22;20421;-92
2021/06/15 05:53:44;;;;;;;28.43;26.33;;;;;;;;;;6278244;22;20401;-88
2021/06/15 05:56:12;;;;;;;29.10;26.80;;;;;;;;;;6277753;22;20403;-88
2021/06/15 05:58:41;;;;;;;29.20;27.20;;;;;;;;;;6278607;22;20391;-88
2021/06/15 06:01:08;;;;;;;29.30;27.10;;;;;;;;;;6277924;22;20396;-88
2021/06/15 06:03:37;;;;;;;28.87;26.50;;;;;;;;;;6278110;22;20406;-87
2021/06/15 06:08:50;;;;;;;29.87;27.57;;;;;;;;;;6255700;22;20429;-88
2021/06/15 06:11:17;;;;;;;27.70;25.93;;;;;;;;;;6276905;22;20417;-88
2021/06/15 06:13:46;;;;;;;30.00;27.50;;;;;;;;;;6278156;22;20401;-87
2021/06/15 06:16:14;;;;;;;28.33;25.80;;;;;;;;;;6278263;22;20401;-87
2021/06/15 06:18:41;;;;;;;28.67;26.57;;;;;;;;;;6278308;22;20382;-88
2021/06/15 06:21:11;;;;;;;26.10;24.50;;;;;;;;;;6278696;22;20397;-88
2021/06/15 06:23:38;;;;;;;24.27;22.57;;;;;;;;;;6251385;22;20416;-88
2021/06/15 06:26:06;;;;;;;24.80;23.30;;;;;;;;;;6278153;22;20418;-87
2021/06/15 06:28:34;;;;;;;25.77;24.17;;;;;;;;;;6277444;22;20410;-87
2021/06/15 06:31:03;;;;;;;26.63;24.93;;;;;;;;;;6277660;22;20399;-88
2021/06/15 06:33:30;;;;;;;26.60;24.60;;;;;;;;;;6277730;22;20883;-88
2021/06/15 06:35:57;;;;;;;24.70;23.10;;;;;;;;;;6277380;22;20843;-88
2021/06/15 06:38:25;;;;;;;25.17;23.67;;;;;;;;;;6277452;22;20396;-88
2021/06/15 06:40:52;;;;;;;26.23;24.40;;;;;;;;;;6278115;22;20487;-89
2021/06/15 06:43:20;;;;;;;26.67;24.90;;;;;;;;;;6278100;22;20378;-87
2021/06/15 06:45:47;;;;;;;25.87;24.07;;;;;;;;;;6277709;22;20415;-88
2021/06/15 06:48:18;;;;;;;26.43;24.83;;;;;;;;;;6277853;22;20873;-88
2021/06/15 06:50:45;;;;;;;26.20;24.50;;;;;;;;;;6277902;22;20961;-87
2021/06/15 06:53:13;;;;;;;27.40;25.50;;;;;;;;;;6250930;22;20429;-87
2021/06/15 06:55:40;;;;;;;25.40;23.63;;;;;;;;;;6277773;22;20870;-88
2021/06/15 06:58:07;;;;;;;25.83;23.50;;;;;;;;;;6277866;22;20371;-88
2021/06/15 07:00:35;;;;;;;26.63;24.83;;;;;;;;;;6278259;22;20367;-89
2021/06/15 07:03:02;;;;;;;26.60;24.50;;;;;;;;;;6277648;22;20916;-88
2021/06/15 07:05:31;;;;;;;25.60;23.90;;;;;;;;;;6278521;22;20358;-88
2021/06/15 07:07:59;;;;;;;26.13;24.33;;;;;;;;;;6280077;22;20405;-88
2021/06/15 07:10:26;;;;;;;25.70;23.93;;;;;;;;;;6279508;22;20379;-88
2021/06/15 07:12:54;;;;;;;27.13;25.03;;;;;;;;;;6279626;22;20452;-88
2021/06/15 07:15:21;;;;;;;26.47;24.43;;;;;;;;;;6279490;22;20876;-88
2021/06/15 07:17:48;;;;;;;26.17;24.37;;;;;;;;;;6280034;22;20400;-88
2021/06/15 07:20:16;;;;;;;25.77;24.07;;;;;;;;;;6279577;22;20427;-88
2021/06/15 07:22:45;;;;;;;25.60;24.00;;;;;;;;;;6280471;22;20393;-88
2021/06/15 07:25:13;;;;;;;25.13;23.33;;;;;;;;;;6278975;22;20435;-88
2021/06/15 07:27:40;;;;;;;27.20;25.10;;;;;;;;;;6279304;22;20411;-88
2021/06/15 07:30:08;;;;;;;27.27;25.50;;;;;;;;;;6279356;22;20454;-89
2021/06/15 07:32:36;;;;;;;26.57;24.67;;;;;;;;;;6279080;22;20938;-88
2021/06/15 07:35:03;;;;;;;28.13;25.63;;;;;;;;;;6279802;22;20897;-88
2021/06/15 07:37:31;;;;;;;27.87;25.90;;;;;;;;;;6279850;22;20363;-89
2021/06/15 07:40:00;;;;;;;27.60;25.40;;;;;;;;;;6279363;22;20364;-88
2021/06/15 07:42:29;;;;;;;28.53;26.23;;;;;;;;;;6279357;22;20367;-89
2021/06/15 07:44:56;;;;;;;26.93;25.10;;;;;;;;;;6279419;22;20484;-89
2021/06/15 07:47:24;;;;;;;28.70;26.50;;;;;;;;;;6253468;22;20368;-89
2021/06/15 07:49:51;;;;;;;26.40;24.63;;;;;;;;;;6279589;22;20437;-88
2021/06/15 07:52:19;;;;;;;27.60;25.53;;;;;;;;;;6279398;22;20447;-90
2021/06/15 07:54:46;;;;;;;27.80;25.40;;;;;;;;;;6278700;22;20398;-89
2021/06/15 07:57:15;;;;;;;27.33;25.00;;;;;;;;;;6279874;22;20401;-89
2021/06/15 07:59:43;;;;;;;26.63;24.63;;;;;;;;;;6252402;22;20452;-87
2021/06/15 08:02:10;;;;;;;27.37;25.47;;;;;;;;;;6279116;22;20383;-89
2021/06/15 08:04:37;;;;;;;26.70;24.70;;;;;;;;;;6279470;22;20397;-87
2021/06/15 08:07:05;;;;;;;25.80;24.03;;;;;;;;;;6279497;22;20397;-89
2021/06/15 08:09:32;;;;;;;27.17;25.37;;;;;;;;;;6279353;22;20397;-89
2021/06/15 08:12:00;;;;;;;28.67;26.37;;;;;;;;;;6279295;22;20446;-89
2021/06/15 08:14:29;;;;;;;26.00;24.10;;;;;;;;;;6279212;22;20404;-89
2021/06/15 08:16:56;;;;;;;27.00;24.77;;;;;;;;;;6278898;22;20719;-87
2021/06/15 08:19:24;;;;;;;27.30;25.47;;;;;;;;;;6252474;22;20387;-89
2021/06/15 08:21:51;;;;;;;26.20;24.50;;;;;;;;;;6279110;22;20443;-89
2021/06/15 08:24:19;;;;;;;27.80;25.87;;;;;;;;;;6279187;22;20892;-88
2021/06/15 08:26:46;;;;;;;27.37;25.40;;;;;;;;;;6278719;22;20448;-88
2021/06/15 08:29:13;;;;;;;29.13;26.73;;;;;;;;;;6278923;22;20896;-89
2021/06/15 08:31:42;;;;;;;28.07;26.17;;;;;;;;;;6278737;22;20875;-88
2021/06/15 08:34:10;;;;;;;28.40;26.43;;;;;;;;;;6279377;22;20376;-89
2021/06/15 08:36:37;;;;;;;29.57;27.37;;;;;;;;;;6279177;22;20379;-87
2021/06/15 08:39:05;;;;;;;28.47;26.50;;;;;;;;;;6279155;22;20368;-88
2021/06/15 08:41:33;;;;;;;29.10;27.10;;;;;;;;;;6278825;22;20397;-88
2021/06/15 08:44:00;;;;;;;31.13;28.63;;;;;;;;;;6278687;22;20383;-87
2021/06/15 08:46:28;;;;;;;30.73;28.53;;;;;;;;;;6278685;22;20397;-88
2021/06/15 08:48:57;;;;;;;29.47;27.27;;;;;;;;;;6278999;22;20363;-88
2021/06/15 08:51:24;;;;;;;30.80;28.27;;;;;;;;;;6278943;22;20378;-87
2021/06/15 08:53:53;;;;;;;32.07;29.77;;;;;;;;;;6279661;22;20429;-87
2021/06/15 08:56:22;;;;;;;31.67;29.10;;;;;;;;;;6278673;22;20404;-87
2021/06/15 08:58:57;;;;;;;30.17;27.87;;;;;;;;;;6278642;22;20402;-89
2021/06/15 09:01:25;;;;;;;30.50;28.17;;;;;;;;;;6252081;22;20367;-89
2021/06/15 09:03:53;;;;;;;30.57;27.33;;;;;;;;;;6279355;22;20368;-88
2021/06/15 09:06:21;;;;;;;30.70;28.30;;;;;;;;;;6251509;22;20471;-88
2021/06/15 09:08:52;;;;;;;29.90;27.47;;;;;;;;;;6278395;22;20408;-89
2021/06/15 09:11:20;;;;;;;28.23;26.27;;;;;;;;;;6279012;22;20379;-89
2021/06/15 09:13:48;;;;;;;30.27;27.60;;;;;;;;;;6278344;22;20423;-88
2021/06/15 09:16:19;;;;;;;28.40;26.40;;;;;;;;;;6278864;22;20476;-88
2021/06/15 09:18:47;;;;;;;29.53;27.53;;;;;;;;;;6278797;22;20453;-86
2021/06/15 09:21:25;;;;;;;29.00;26.70;;;;;;;;;;6278137;22;20780;-89
2021/06/15 09:24:04;;;;;;;26.97;25.17;;;;;;;;;;6278820;22;20363;-88
2021/06/15 09:26:51;;;;;;;27.40;25.37;;;;;;;;;;6278024;22;20389;-90
2021/06/15 09:29:19;;;;;;;26.03;24.23;;;;;;;;;;6278426;22;20887;-89
2021/06/15 09:31:53;;;;;;;26.30;24.50;;;;;;;;;;6277361;22;20894;-89
2021/06/15 09:34:21;;;;;;;24.97;23.33;;;;;;;;;;6251218;22;20417;-89
2021/06/15 09:36:49;;;;;;;25.93;24.07;;;;;;;;;;6278485;22;20411;-89
2021/06/15 09:39:19;;;;;;;25.00;23.10;;;;;;;;;;6278629;22;20408;-89
2021/06/15 09:41:47;;;;;;;25.97;23.77;;;;;;;;;;6278498;22;20374;-88
2021/06/15 09:44:16;;;;;;;26.00;23.90;;;;;;;;;;6251426;22;20400;-87
2021/06/15 09:46:44;;;;;;;25.27;23.23;;;;;;;;;;6280013;22;20477;-88
2021/06/15 09:49:12;;;;;;;24.40;22.83;;;;;;;;;;6251922;22;20406;-88
2021/06/15 09:51:40;;;;;;;24.37;22.83;;;;;;;;;;6252594;22;20889;-88
2021/06/15 09:54:08;;;;;;;23.23;21.63;;;;;;;;;;6251331;22;20416;-89
2021/06/15 09:56:41;;;;;;;23.57;22.13;;;;;;;;;;6278313;22;20375;-88
2021/06/15 09:59:09;;;;;;;26.07;24.13;;;;;;;;;;6278367;22;20451;-88
2021/06/15 10:01:37;;;;;;;23.40;21.80;;;;;;;;;;6278805;22;20394;-88
2021/06/15 10:04:17;;;;;;;23.60;21.90;;;;;;;;;;6278293;22;20397;-88
2021/06/15 10:06:46;;;;;;;25.03;23.13;;;;;;;;;;6278519;22;20755;-88
2021/06/15 10:09:14;;;;;;;23.83;22.23;;;;;;;;;;6278426;22;20401;-88
2021/06/15 10:11:46;;;;;;;24.73;23.03;;;;;;;;;;6278681;22;20401;-88
2021/06/15 10:14:13;;;;;;;24.70;23.03;;;;;;;;;;6252143;22;20901;-88
2021/06/15 10:16:41;;;;;;;25.57;23.77;;;;;;;;;;6277917;22;20749;-88
2021/06/15 10:19:09;;;;;;;24.33;22.70;;;;;;;;;;6250933;22;20869;-88
2021/06/15 10:21:37;;;;;;;24.17;22.50;;;;;;;;;;6278165;22;20389;-88
2021/06/15 10:24:06;;;;;;;24.03;22.43;;;;;;;;;;6278172;22;21174;-88
2021/06/15 10:26:34;;;;;;;23.60;22.07;;;;;;;;;;6277714;22;20377;-88
2021/06/15 10:29:10;;;;;;;23.23;21.60;;;;;;;;;;6278290;22;20372;-88
2021/06/15 10:31:38;;;;;;;23.17;21.67;;;;;;;;;;6277967;22;20449;-88
2021/06/15 10:34:05;;;;;;;23.50;21.80;;;;;;;;;;6277826;22;20471;-89
2021/06/15 10:36:40;;;;;;;23.70;22.10;;;;;;;;;;6252064;22;20397;-88
2021/06/15 10:39:08;;;;;;;22.73;21.33;;;;;;;;;;6277612;22;20952;-87
2021/06/15 10:41:36;;;;;;;24.40;22.67;;;;;;;;;;6277719;22;20409;-88
2021/06/15 10:44:05;;;;;;;23.60;22.10;;;;;;;;;;6278144;22;20392;-89
2021/06/15 10:46:37;;;;;;;23.90;22.30;;;;;;;;;;6278527;22;20403;-88
2021/06/15 10:49:09;;;;;;;23.10;21.60;;;;;;;;;;6277153;22;20506;-88
2021/06/15 10:51:57;;;;;;;26.17;23.60;;;;;;;;;;6277956;22;20385;-88
2021/06/15 10:54:28;;;;;;;24.60;22.80;;;;;;;;;;6277679;22;20415;-89
2021/06/15 10:57:16;;;;;;;24.37;22.67;;;;;;;;;;6277808;22;20381;-88
2021/06/15 11:00:04;;;;;;;24.17;22.37;;;;;;;;;;6278642;22;20400;-87
2021/06/15 11:02:33;;;;;;;23.73;22.00;;;;;;;;;;6270967;22;20413;-83
2021/06/15 11:05:01;;;;;;;21.60;20.30;;;;;;;;;;6275644;22;20389;-86
2021/06/15 11:07:35;;;;;;;22.73;21.30;;;;;;;;;;6277638;22;20738;-85
2021/06/15 11:10:03;;;;;;;23.20;21.60;;;;;;;;;;6277616;22;20440;-86
2021/06/15 11:12:30;;;;;;;24.63;22.37;;;;;;;;;;6277690;22;20515;-86
2021/06/15 11:15:21;;;;;;;23.00;21.63;;;;;;;;;;6277642;22;20397;-89
2021/06/15 11:20:34;;;;;;;23.20;21.60;;;;;;;;;;6275824;22;20547;-87
2021/06/15 11:23:15;;;;;;;22.50;20.90;;;;;;;;;;6277792;22;20513;-86
2021/06/15 11:25:46;;;;;;;21.70;20.40;;;;;;;;;;6276961;22;20413;-87
2021/06/15 11:28:32;;;;;;;21.43;20.13;;;;;;;;;;6250138;22;20444;-86
2021/06/15 11:31:14;;;;;;;21.30;20.13;;;;;;;;;;6277407;22;20397;-86
2021/06/15 11:34:14;;;;;;;22.77;21.27;;;;;;;;;;6275432;22;20466;-82
2021/06/15 11:36:44;;;;;;;22.90;21.50;;;;;;;;;;6184416;23;20446;-87
2021/06/15 11:39:28;;;;;;;22.30;20.90;;;;;;;;;;6184499;23;20412;-87
2021/06/15 11:42:20;;;;;;;22.90;21.50;;;;;;;;;;6184570;23;20943;-87
2021/06/15 11:44:53;;;;;;;23.20;21.47;;;;;;;;;;6184379;23;20414;-86
2021/06/15 11:47:31;;;;;;;22.77;21.33;;;;;;;;;;6183942;23;20493;-86
2021/06/15 11:50:06;;;;;;;22.80;21.40;;;;;;;;;;6184044;23;20407;-87
2021/06/15 11:52:35;;;;;;;23.40;21.80;;;;;;;;;;6185825;23;20382;-86
2021/06/15 11:55:03;;;;;;;22.80;21.20;;;;;;;;;;6185675;23;20418;-86
2021/06/15 11:57:30;;;;;;;22.97;21.47;;;;;;;;;;6185806;23;20498;-86
2021/06/15 11:59:58;;;;;;;23.50;21.70;;;;;;;;;;6185142;23;20885;-86
2021/06/15 12:02:25;;;;;;;22.40;20.80;;;;;;;;;;6185642;23;20396;-86
2021/06/15 12:05:09;;;;;;;22.30;20.90;;;;;;;;;;6185538;23;20401;-87
2021/06/15 12:07:39;;;;;;;22.23;20.90;;;;;;;;;;6185224;23;20379;-86
2021/06/15 12:10:13;;;;;;;23.03;21.47;;;;;;;;;;6205511;22;20378;-85
2021/06/15 12:12:56;;;;;;;22.63;21.33;;;;;;;;;;6278841;22;20404;-86
2021/06/15 12:15:25;;;;;;;22.57;21.17;;;;;;;;;;6279039;22;20380;-87
2021/06/15 12:17:52;;;;;;;23.13;21.53;;;;;;;;;;6252739;22;20914;-87
2021/06/15 12:20:22;;;;;;;23.80;22.20;;;;;;;;;;6279011;22;20868;-87
2021/06/15 12:22:52;;;;;;;22.97;21.50;;;;;;;;;;6278946;22;20880;-87
2021/06/15 12:25:20;;;;;;;22.00;20.60;;;;;;;;;;6278762;22;20368;-87
2021/06/15 12:27:48;;;;;;;23.23;21.73;;;;;;;;;;6278719;22;20764;-87
2021/06/15 12:30:18;;;;;;;23.73;22.20;;;;;;;;;;6279443;22;20393;-87
2021/06/15 12:32:46;;;;;;;23.50;22.10;;;;;;;;;;6279546;22;20694;-87
2021/06/15 12:35:20;;;;;;;23.50;22.10;;;;;;;;;;6278058;22;21175;-87
2021/06/15 12:37:48;;;;;;;23.93;22.30;;;;;;;;;;6278851;22;20868;-87
2021/06/15 12:40:17;;;;;;;23.63;22.23;;;;;;;;;;6252368;22;20384;-87
2021/06/15 12:42:45;;;;;;;24.40;22.70;;;;;;;;;;6279921;22;20380;-87
2021/06/15 12:45:12;;;;;;;24.00;22.17;;;;;;;;;;6279198;22;20401;-87
2021/06/15 12:47:46;;;;;;;23.40;22.00;;;;;;;;;;6278468;22;20379;-86
2021/06/15 12:50:21;;;;;;;23.43;21.93;;;;;;;;;;6278968;22;20394;-86
2021/06/15 12:52:50;;;;;;;24.50;22.80;;;;;;;;;;6251897;22;20407;-87
2021/06/15 12:55:19;;;;;;;23.70;22.03;;;;;;;;;;6278806;22;20707;-88
2021/06/15 12:57:57;;;;;;;23.93;22.03;;;;;;;;;;6252039;22;20413;-88
2021/06/15 13:00:25;;;;;;;24.63;22.80;;;;;;;;;;6252103;22;20406;-88
2021/06/15 13:02:52;;;;;;;24.33;22.43;;;;;;;;;;6277986;22;20404;-88
2021/06/15 13:05:20;;;;;;;23.23;21.80;;;;;;;;;;6275927;22;20846;-87
2021/06/15 13:07:57;;;;;;;24.43;22.70;;;;;;;;;;6278586;22;20435;-87
2021/06/15 13:10:26;;;;;;;23.43;21.93;;;;;;;;;;6278507;22;20368;-87
2021/06/15 13:12:55;;;;;;;24.50;22.60;;;;;;;;;;6279837;22;20375;-87
2021/06/15 13:15:24;;;;;;;23.73;22.00;;;;;;;;;;6252266;22;20809;-86
2021/06/15 13:18:01;;;;;;;23.13;21.53;;;;;;;;;;6278166;22;20404;-87
2021/06/15 13:20:29;;;;;;;22.70;21.30;;;;;;;;;;6277835;22;20368;-87
2021/06/15 13:22:57;;;;;;;23.47;21.97;;;;;;;;;;6279491;22;20644;-87
2021/06/15 13:25:27;;;;;;;24.87;23.27;;;;;;;;;;6278525;22;20406;-87
2021/06/15 13:27:58;;;;;;;24.20;22.47;;;;;;;;;;6278650;22;20420;-87
2021/06/15 13:30:27;;;;;;;23.70;22.20;;;;;;;;;;6252272;22;20394;-86
2021/06/15 13:33:02;;;;;;;23.70;22.00;;;;;;;;;;6278643;22;20365;-87
2021/06/15 13:35:29;;;;;;;24.40;22.80;;;;;;;;;;6278342;22;20437;-86
2021/06/15 13:37:57;;;;;;;24.20;22.60;;;;;;;;;;6278803;22;20389;-87
2021/06/15 13:40:31;;;;;;;23.10;21.70;;;;;;;;;;6278132;22;20409;-87
2021/06/15 13:42:59;;;;;;;22.37;21.07;;;;;;;;;;6278520;22;20469;-87
2021/06/15 13:45:27;;;;;;;22.70;21.20;;;;;;;;;;6251716;22;20453;-87
2021/06/15 13:47:55;;;;;;;22.67;21.00;;;;;;;;;;6278386;22;20392;-86
2021/06/15 13:50:22;;;;;;;23.60;22.00;;;;;;;;;;6277992;22;20857;-87
2021/06/15 13:52:50;;;;;;;25.37;23.53;;;;;;;;;;6251638;22;20379;-86
2021/06/15 13:55:18;;;;;;;24.10;22.60;;;;;;;;;;6278510;22;20411;-88
2021/06/15 13:57:47;;;;;;;23.23;21.73;;;;;;;;;;6251555;22;20400;-87
2021/06/15 14:00:16;;;;;;;23.80;22.20;;;;;;;;;;6278661;22;20379;-87
2021/06/15 14:02:44;;;;;;;22.67;21.37;;;;;;;;;;6278632;22;20400;-86
2021/06/15 14:05:12;;;;;;;22.60;21.00;;;;;;;;;;6277910;22;20849;-87
2021/06/15 14:07:39;;;;;;;21.87;20.57;;;;;;;;;;6278411;22;20450;-88
2021/06/15 14:10:08;;;;;;;22.23;20.70;;;;;;;;;;6278103;22;20776;-88
2021/06/15 14:12:35;;;;;;;24.23;22.17;;;;;;;;;;6278287;22;20390;-88
2021/06/15 14:15:05;;;;;;;24.17;22.33;;;;;;;;;;6277598;22;20932;-88
2021/06/15 14:17:33;;;;;;;23.47;21.90;;;;;;;;;;6278022;22;20458;-86
2021/06/15 14:20:04;;;;;;;23.10;21.73;;;;;;;;;;6278145;22;20390;-88
2021/06/15 14:22:31;;;;;;;23.00;21.40;;;;;;;;;;6277874;22;20376;-86
2021/06/15 14:24:59;;;;;;;23.20;21.57;;;;;;;;;;6250703;22;20899;-81
2021/06/15 14:27:26;;;;;;;22.90;21.40;;;;;;;;;;6277687;22;20754;-86
2021/06/15 14:29:53;;;;;;;22.80;20.90;;;;;;;;;;6277973;22;20423;-87
2021/06/15 14:32:22;;;;;;;23.80;22.20;;;;;;;;;;6277889;22;20377;-85
2021/06/15 14:34:50;;;;;;;23.07;21.43;;;;;;;;;;6277112;22;20913;-86